createdAt,value
2018-12-16T00:01:01.592Z,14.60
2018-12-16T00:03:28.869Z,13.97
2018-12-16T00:05:59.052Z,14.20
2018-12-16T00:08:27.311Z,12.83
2018-12-16T00:10:55.494Z,12.60
2018-12-16T00:13:24.040Z,14.03
2018-12-16T00:15:52.310Z,13.90
2018-12-16T00:18:21.762Z,13.60
2018-12-16T00:20:49.975Z,13.50
2018-12-16T00:23:18.226Z,14.00
2018-12-16T00:25:46.382Z,13.33
2018-12-16T00:28:14.543Z,14.07
2018-12-16T00:30:42.810Z,13.33
2018-12-16T00:33:11.082Z,13.87
2018-12-16T00:35:43.393Z,13.40
2018-12-16T00:38:14.551Z,13.37
2018-12-16T00:40:43.738Z,14.53
2018-12-16T00:43:12.432Z,14.50
2018-12-16T00:45:40.731Z,15.17
2018-12-16T00:48:10.267Z,14.57
2018-12-16T00:50:38.487Z,15.07
2018-12-16T00:53:06.907Z,15.13
2018-12-16T00:55:35.184Z,15.50
2018-12-16T00:58:03.421Z,13.97
2018-12-16T01:00:32.026Z,14.47
2018-12-16T01:03:00.266Z,14.60
2018-12-16T01:05:28.415Z,15.53
2018-12-16T01:07:56.958Z,14.98
2018-12-16T01:10:25.208Z,14.63
2018-12-16T01:12:54.374Z,14.87
2018-12-16T01:15:22.830Z,14.37
2018-12-16T01:17:51.032Z,16.90
2018-12-16T01:20:19.562Z,16.10
2018-12-16T01:22:47.787Z,17.33
2018-12-16T01:25:16.024Z,17.13
2018-12-16T01:27:48.513Z,16.60
2018-12-16T01:30:16.735Z,16.03
2018-12-16T01:32:45.935Z,16.87
2018-12-16T01:35:14.657Z,17.60
2018-12-16T01:37:42.973Z,15.93
2018-12-16T01:40:11.134Z,17.33
2018-12-16T01:42:40.344Z,17.33
2018-12-16T01:45:17.440Z,16.40
2018-12-16T01:47:45.596Z,16.50
2018-12-16T01:50:14.761Z,16.13
2018-12-16T01:52:49.956Z,16.07
2018-12-16T01:55:13.433Z,17.60
2018-12-16T01:57:41.664Z,17.30
2018-12-16T02:00:10.439Z,15.60
2018-12-16T02:02:44.739Z,14.73
2018-12-16T02:05:25.446Z,15.95
2018-12-16T02:08:15.023Z,16.47
2018-12-16T02:10:43.614Z,15.40
2018-12-16T02:13:23.512Z,14.37
2018-12-16T02:16:16.024Z,16.80
2018-12-16T02:18:44.600Z,15.80
2018-12-16T02:21:21.623Z,15.40
2018-12-16T02:23:51.184Z,16.07
2018-12-16T02:26:25.270Z,16.73
2018-12-16T02:28:53.439Z,16.40
2018-12-16T02:31:28.886Z,16.90
2018-12-16T02:34:20.903Z,15.87
2018-12-16T02:36:56.123Z,17.47
2018-12-16T02:39:32.232Z,16.87
2018-12-16T02:42:11.382Z,15.88
2018-12-16T02:44:41.676Z,16.67
2018-12-16T02:47:26.118Z,15.67
2018-12-16T02:50:04.879Z,16.42
2018-12-16T02:52:37.169Z,15.50
2018-12-16T02:55:05.904Z,15.60
2018-12-16T02:57:40.154Z,15.77
2018-12-16T03:00:29.375Z,15.23
2018-12-16T03:03:02.063Z,16.00
2018-12-16T03:05:30.514Z,15.70
2018-12-16T03:08:14.168Z,16.53
2018-12-16T03:10:48.756Z,15.50
2018-12-16T03:13:34.851Z,16.33
2018-12-16T03:16:07.279Z,16.93
2018-12-16T03:18:43.398Z,15.63
2018-12-16T03:21:17.722Z,17.17
2018-12-16T03:23:46.384Z,15.80
2018-12-16T03:26:14.953Z,16.52
2018-12-16T03:28:45.650Z,16.10
2018-12-16T03:31:31.090Z,15.93
2018-12-16T03:34:01.916Z,16.40
2018-12-16T03:40:30.854Z,17.50
2018-12-16T03:42:59.395Z,16.07
2018-12-16T03:45:32.577Z,16.67
2018-12-16T03:48:11.720Z,16.10
2018-12-16T03:50:45.845Z,16.73
2018-12-16T03:53:19.801Z,16.70
2018-12-16T03:56:56.843Z,16.53
2018-12-16T04:00:01.564Z,16.60
2018-12-16T04:02:44.110Z,16.30
2018-12-16T04:05:16.354Z,16.20
2018-12-16T04:07:44.559Z,16.20
2018-12-16T04:10:13.434Z,16.33
2018-12-16T04:12:41.781Z,18.43
2018-12-16T04:15:11.094Z,16.27
2018-12-16T04:17:39.385Z,16.07
2018-12-16T04:20:27.020Z,16.87
2018-12-16T04:22:55.293Z,16.67
2018-12-16T04:25:23.619Z,16.37
2018-12-16T04:27:52.151Z,16.87
2018-12-16T04:30:30.556Z,15.83
2018-12-16T04:33:01.908Z,18.57
2018-12-16T04:35:35.523Z,16.30
2018-12-16T04:38:03.813Z,18.50
2018-12-16T04:40:33.078Z,16.67
2018-12-16T04:43:05.803Z,17.27
2018-12-16T04:45:41.052Z,15.90
2018-12-16T04:48:18.468Z,16.40
2018-12-16T04:51:06.329Z,17.23
2018-12-16T04:53:37.077Z,17.90
2018-12-16T04:56:06.580Z,16.77
2018-12-16T04:58:48.062Z,16.13
2018-12-16T05:01:17.349Z,17.67
2018-12-16T05:03:50.692Z,17.87
2018-12-16T05:06:23.276Z,17.27
2018-12-16T05:08:51.461Z,15.97
2018-12-16T05:11:19.791Z,16.47
2018-12-16T05:13:48.667Z,16.30
2018-12-16T05:16:16.951Z,16.70
2018-12-16T05:18:51.050Z,16.87
2018-12-16T05:21:28.466Z,16.40
2018-12-16T05:24:01.840Z,16.27
2018-12-16T05:26:31.138Z,16.63
2018-12-16T05:29:09.791Z,17.57
2018-12-16T05:31:38.019Z,16.83
2018-12-16T05:34:08.217Z,15.80
2018-12-16T05:36:36.521Z,17.87
2018-12-16T05:39:07.377Z,16.70
2018-12-16T05:41:49.656Z,17.30
2018-12-16T05:44:27.605Z,15.77
2018-12-16T05:46:55.834Z,15.60
2018-12-16T05:49:24.158Z,16.42
2018-12-16T05:51:52.814Z,17.00
2018-12-16T05:54:28.964Z,16.27
2018-12-16T05:57:21.311Z,15.60
2018-12-16T05:59:50.591Z,15.20
2018-12-16T06:02:19.208Z,15.23
2018-12-16T06:04:48.496Z,15.03
2018-12-16T06:07:19.196Z,16.00
2018-12-16T06:09:47.399Z,15.00
2018-12-16T06:12:17.679Z,15.07
2018-12-16T06:14:46.931Z,15.37
2018-12-16T06:17:23.064Z,16.03
2018-12-16T06:19:52.383Z,14.77
2018-12-16T06:22:21.606Z,16.37
2018-12-16T06:24:50.361Z,15.57
2018-12-16T06:27:27.432Z,15.87
2018-12-16T06:29:56.030Z,15.50
2018-12-16T06:32:43.618Z,15.37
2018-12-16T06:35:19.908Z,15.13
2018-12-16T06:37:49.026Z,16.07
2018-12-16T06:40:17.302Z,14.93
2018-12-16T06:42:51.320Z,16.60
2018-12-16T06:45:21.177Z,15.67
2018-12-16T06:47:58.365Z,16.30
2018-12-16T06:50:31.660Z,14.68
2018-12-16T06:53:08.950Z,15.37
2018-12-16T06:55:52.740Z,14.18
2018-12-16T06:58:24.924Z,16.63
2018-12-16T07:01:05.384Z,15.50
2018-12-16T07:03:34.606Z,14.93
2018-12-16T07:06:03.815Z,14.40
2018-12-16T07:08:32.086Z,14.77
2018-12-16T07:11:06.584Z,15.37
2018-12-16T07:13:38.657Z,14.70
2018-12-16T07:16:16.802Z,15.80
2018-12-16T07:18:46.095Z,13.80
2018-12-16T07:21:15.430Z,14.10
2018-12-16T07:23:44.673Z,14.33
2018-12-16T07:26:18.834Z,14.77
2018-12-16T07:28:50.365Z,15.20
2018-12-16T07:31:19.307Z,14.83
2018-12-16T07:33:51.599Z,15.73
2018-12-16T07:36:23.363Z,15.43
2018-12-16T07:39:02.729Z,14.93
2018-12-16T07:41:50.350Z,14.33
2018-12-16T07:44:20.613Z,14.63
2018-12-16T07:46:48.844Z,14.17
2018-12-16T07:49:17.142Z,16.00
2018-12-16T07:51:48.489Z,15.47
2018-12-16T07:54:17.860Z,14.47
2018-12-16T07:56:51.858Z,16.47
2018-12-16T07:59:25.953Z,15.93
2018-12-16T08:01:55.420Z,16.50
2018-12-16T08:04:25.739Z,16.27
2018-12-16T08:06:55.054Z,16.57
2018-12-16T08:09:54.974Z,15.57
2018-12-16T08:12:37.357Z,15.03
2018-12-16T08:15:05.951Z,16.97
2018-12-16T08:17:40.020Z,16.53
2018-12-16T08:20:18.188Z,16.20
2018-12-16T08:22:47.452Z,16.83
2018-12-16T08:25:15.734Z,15.33
2018-12-16T08:27:54.848Z,17.03
2018-12-16T08:30:25.339Z,16.53
2018-12-16T08:32:59.436Z,17.80
2018-12-16T08:35:37.690Z,16.23
2018-12-16T08:38:08.262Z,17.73
2018-12-16T08:40:43.000Z,16.93
2018-12-16T08:43:12.283Z,16.93
2018-12-16T08:45:40.481Z,16.93
2018-12-16T08:48:20.802Z,16.63
2018-12-16T08:50:52.558Z,16.70
2018-12-16T08:53:23.908Z,16.53
2018-12-16T08:56:02.428Z,16.23
2018-12-16T08:58:34.656Z,16.42
2018-12-16T09:01:16.954Z,17.33
2018-12-16T09:04:08.424Z,16.80
2018-12-16T09:06:40.122Z,17.47
2018-12-16T09:09:20.581Z,17.60
2018-12-16T09:11:51.637Z,18.37
2018-12-16T09:14:24.374Z,18.23
2018-12-16T09:17:03.349Z,17.20
2018-12-16T09:19:38.073Z,16.50
2018-12-16T09:22:08.331Z,17.33
2018-12-16T09:24:43.990Z,18.65
2018-12-16T09:27:23.235Z,16.53
2018-12-16T09:30:00.133Z,17.13
2018-12-16T09:32:37.787Z,18.53
2018-12-16T09:35:10.257Z,16.90
2018-12-16T09:37:40.588Z,19.33
2018-12-16T09:40:14.916Z,18.90
2018-12-16T09:42:49.251Z,18.73
2018-12-16T09:45:26.373Z,18.83
2018-12-16T09:47:57.595Z,19.27
2018-12-16T09:50:25.907Z,21.87
2018-12-16T09:52:55.186Z,19.37
2018-12-16T09:55:28.376Z,18.95
2018-12-16T09:57:56.672Z,17.50
2018-12-16T10:00:28.920Z,17.40
2018-12-16T10:02:57.642Z,18.27
2018-12-16T10:05:26.938Z,17.87
2018-12-16T10:08:03.550Z,18.47
2018-12-16T10:10:46.126Z,17.77
2018-12-16T10:13:15.438Z,19.07
2018-12-16T10:15:49.576Z,19.50
2018-12-16T10:18:32.568Z,19.93
2018-12-16T10:21:01.124Z,18.50
2018-12-16T10:23:31.274Z,20.17
2018-12-16T10:26:00.679Z,20.27
2018-12-16T10:28:37.793Z,20.03
2018-12-16T10:31:07.231Z,20.13
2018-12-16T10:33:36.682Z,18.83
2018-12-16T10:36:04.885Z,20.47
2018-12-16T10:38:42.249Z,19.60
2018-12-16T10:41:18.345Z,21.07
2018-12-16T10:43:47.634Z,19.87
2018-12-16T10:46:15.877Z,20.50
2018-12-16T10:48:44.329Z,21.10
2018-12-16T10:51:14.588Z,20.00
2018-12-16T10:53:48.784Z,20.97
2018-12-16T10:56:17.270Z,20.73
2018-12-16T10:58:45.444Z,22.33
2018-12-16T11:01:29.557Z,21.33
2018-12-16T11:04:04.665Z,20.47
2018-12-16T11:06:32.946Z,21.57
2018-12-16T11:09:01.185Z,22.17
2018-12-16T11:11:31.413Z,21.13
2018-12-16T11:14:07.333Z,22.33
2018-12-16T11:16:45.340Z,21.87
2018-12-16T11:19:14.858Z,20.90
2018-12-16T11:21:43.102Z,22.27
2018-12-16T11:24:12.380Z,18.77
2018-12-16T11:26:40.721Z,20.93
2018-12-16T11:29:08.888Z,21.20
2018-12-16T11:31:37.074Z,22.13
2018-12-16T11:34:05.242Z,20.60
2018-12-16T11:36:33.395Z,20.93
2018-12-16T11:39:01.625Z,22.03
2018-12-16T11:41:31.825Z,22.67
2018-12-16T11:43:59.984Z,22.60
2018-12-16T11:46:28.261Z,21.80
2018-12-16T11:48:56.427Z,22.20
2018-12-16T11:51:29.172Z,23.30
2018-12-16T11:53:57.414Z,22.33
2018-12-16T11:56:32.270Z,23.60
2018-12-16T11:59:00.526Z,22.53
2018-12-16T12:01:30.304Z,24.87
2018-12-16T12:04:00.524Z,22.33
2018-12-16T12:06:28.971Z,23.70
2018-12-16T12:08:57.552Z,22.03
2018-12-16T12:11:28.731Z,21.77
2018-12-16T12:13:57.486Z,22.67
2018-12-16T12:16:25.895Z,22.40
2018-12-16T12:19:01.083Z,23.30
2018-12-16T12:21:29.183Z,21.87
2018-12-16T12:23:57.423Z,22.77
2018-12-16T12:26:25.691Z,22.30
2018-12-16T12:28:53.987Z,23.03
2018-12-16T12:31:22.236Z,22.73
2018-12-16T12:33:50.512Z,22.13
2018-12-16T12:36:18.792Z,23.83
2018-12-16T12:38:48.060Z,22.37
2018-12-16T12:41:17.289Z,22.20
2018-12-16T12:43:46.509Z,22.23
2018-12-16T12:46:14.765Z,23.93
2018-12-16T12:48:43.225Z,23.33
2018-12-16T12:51:11.889Z,23.70
2018-12-16T12:53:47.169Z,22.77
2018-12-16T12:56:16.400Z,23.93
2018-12-16T12:58:49.302Z,21.90
2018-12-16T13:01:17.572Z,23.87
2018-12-16T13:03:47.879Z,22.00
2018-12-16T13:06:16.095Z,22.73
2018-12-16T13:08:44.269Z,21.67
2018-12-16T13:11:12.491Z,22.47
2018-12-16T13:13:42.712Z,22.30
2018-12-16T13:16:10.990Z,21.70
2018-12-16T13:18:40.610Z,22.58
2018-12-16T13:21:08.851Z,23.37
2018-12-16T13:23:37.110Z,23.33
2018-12-16T13:26:06.423Z,21.47
2018-12-16T13:28:43.810Z,21.90
2018-12-16T13:31:13.075Z,22.53
2018-12-16T13:33:41.331Z,21.35
2018-12-16T13:36:12.443Z,22.80
2018-12-16T13:38:40.727Z,21.83
2018-12-16T13:41:09.025Z,22.37
2018-12-16T13:43:38.357Z,23.60
2018-12-16T13:46:08.611Z,23.23
2018-12-16T13:48:41.014Z,29.37
2018-12-16T13:51:12.077Z,24.07
2018-12-16T13:53:40.337Z,23.13
2018-12-16T13:56:10.654Z,22.97
2018-12-16T13:58:43.888Z,23.93
2018-12-16T14:01:19.516Z,23.07
2018-12-16T14:03:50.767Z,24.17
2018-12-16T14:06:19.078Z,24.30
2018-12-16T14:08:47.225Z,26.57
2018-12-16T14:11:16.419Z,26.37
2018-12-16T14:13:44.620Z,24.07
2018-12-16T14:16:13.878Z,25.77
2018-12-16T14:18:42.066Z,25.50
2018-12-16T14:21:10.303Z,25.73
2018-12-16T14:23:38.529Z,24.13
2018-12-16T14:26:06.715Z,25.53
2018-12-16T14:28:34.956Z,23.87
2018-12-16T14:31:03.547Z,25.10
2018-12-16T14:33:31.989Z,24.53
2018-12-16T14:36:00.230Z,27.07
2018-12-16T14:38:28.875Z,25.53
2018-12-16T14:40:57.437Z,26.00
2018-12-16T14:43:26.743Z,26.13
2018-12-16T14:45:54.974Z,26.30
2018-12-16T14:48:23.222Z,26.30
2018-12-16T14:50:52.450Z,25.70
2018-12-16T14:53:21.302Z,24.43
2018-12-16T14:55:55.099Z,26.03
2018-12-16T14:58:18.565Z,25.40
2018-12-16T15:00:47.297Z,25.33
2018-12-16T15:03:15.525Z,25.80
2018-12-16T15:05:43.672Z,25.50
2018-12-16T15:08:14.349Z,25.77
2018-12-16T15:10:47.379Z,23.47
2018-12-16T15:13:16.755Z,26.07
2018-12-16T15:15:51.823Z,25.27
2018-12-16T15:18:20.054Z,26.23
2018-12-16T15:20:48.318Z,26.33
2018-12-16T15:23:16.491Z,26.50
2018-12-16T15:25:47.740Z,24.50
2018-12-16T15:28:15.893Z,27.67
2018-12-16T15:30:44.069Z,27.50
2018-12-16T15:33:12.287Z,27.80
2018-12-16T15:35:40.519Z,27.03
2018-12-16T15:38:09.795Z,26.10
2018-12-16T15:40:39.295Z,25.05
2018-12-16T15:43:07.906Z,27.10
2018-12-16T15:45:36.119Z,28.43
2018-12-16T15:48:14.266Z,24.53
2018-12-16T15:50:54.619Z,25.53
2018-12-16T15:53:23.233Z,25.30
2018-12-16T15:55:51.428Z,25.50
2018-12-16T15:58:19.740Z,25.47
2018-12-16T16:00:54.749Z,24.47
2018-12-16T16:03:27.259Z,24.80
2018-12-16T16:05:56.534Z,26.07
2018-12-16T16:08:27.777Z,26.23
2018-12-16T16:10:56.102Z,24.57
2018-12-16T16:13:24.330Z,24.90
2018-12-16T16:15:53.950Z,26.13
2018-12-16T16:18:25.262Z,24.87
2018-12-16T16:21:00.675Z,25.43
2018-12-16T16:27:25.460Z,25.40
2018-12-16T16:29:54.109Z,24.67
2018-12-16T16:32:23.296Z,25.37
2018-12-16T16:34:53.530Z,23.77
2018-12-16T16:37:22.170Z,25.33
2018-12-16T16:39:56.529Z,24.63
2018-12-16T16:42:26.764Z,25.10
2018-12-16T16:44:55.018Z,27.73
2018-12-16T16:47:25.314Z,28.63
2018-12-16T16:49:55.633Z,25.57
2018-12-16T16:52:24.889Z,27.60
2018-12-16T16:54:55.146Z,26.03
2018-12-16T16:57:23.399Z,24.57
2018-12-16T16:59:54.865Z,26.33
2018-12-16T17:02:23.517Z,25.00
2018-12-16T17:04:51.765Z,25.37
2018-12-16T17:07:20.990Z,24.33
2018-12-16T17:09:49.265Z,25.47
2018-12-16T17:12:17.393Z,25.67
2018-12-16T17:14:45.579Z,25.27
2018-12-16T17:17:14.342Z,26.07
2018-12-16T17:19:43.574Z,25.30
2018-12-16T17:22:11.746Z,24.20
2018-12-16T17:24:40.993Z,26.70
2018-12-16T17:27:11.170Z,25.20
2018-12-16T17:29:39.366Z,25.95
2018-12-16T17:32:11.797Z,26.37
2018-12-16T17:34:40.025Z,26.37
2018-12-16T17:37:08.237Z,26.27
2018-12-16T17:39:36.497Z,27.00
2018-12-16T17:42:04.703Z,27.47
2018-12-16T17:44:32.921Z,26.90
2018-12-16T17:47:01.162Z,25.43
2018-12-16T17:49:29.324Z,26.47
2018-12-16T17:51:57.536Z,27.80
2018-12-16T17:54:27.729Z,28.57
2018-12-16T17:56:55.903Z,25.70
2018-12-16T17:59:24.072Z,26.73
2018-12-16T18:01:52.261Z,26.97
2018-12-16T18:04:21.428Z,27.30
2018-12-16T18:06:50.661Z,27.30
2018-12-16T18:09:18.939Z,27.27
2018-12-16T18:11:47.171Z,25.60
2018-12-16T18:14:15.363Z,26.23
2018-12-16T18:16:43.611Z,27.27
2018-12-16T18:19:11.890Z,26.33
2018-12-16T18:21:40.137Z,26.33
2018-12-16T18:24:09.347Z,26.40
2018-12-16T18:26:43.785Z,26.70
2018-12-16T18:29:06.884Z,30.23
2018-12-16T18:31:35.063Z,27.47
2018-12-16T18:34:03.283Z,26.17
2018-12-16T18:36:31.692Z,24.20
2018-12-16T18:38:59.942Z,29.37
2018-12-16T18:41:29.208Z,28.70
2018-12-16T18:43:57.530Z,26.83
2018-12-16T18:46:26.213Z,29.07
2018-12-16T18:48:54.387Z,27.57
2018-12-16T18:51:22.612Z,27.80
2018-12-16T18:53:51.768Z,29.33
2018-12-16T18:56:19.970Z,33.53
2018-12-16T18:58:48.211Z,31.40
2018-12-16T19:01:16.458Z,30.23
2018-12-16T19:03:44.711Z,29.30
2018-12-16T19:06:13.008Z,34.47
2018-12-16T19:08:44.173Z,31.37
2018-12-16T19:11:12.368Z,34.07
2018-12-16T19:13:40.599Z,31.20
2018-12-16T19:16:08.852Z,32.10
2018-12-16T19:18:37.171Z,31.03
2018-12-16T19:21:09.403Z,32.80
2018-12-16T19:23:45.453Z,31.87
2018-12-16T19:26:16.783Z,31.80
2018-12-16T19:28:44.940Z,31.47
2018-12-16T19:31:16.260Z,30.73
2018-12-16T19:33:45.526Z,31.00
2018-12-16T19:36:14.000Z,29.77
2018-12-16T19:38:42.283Z,28.67
2018-12-16T19:41:10.521Z,32.53
2018-12-16T19:43:38.695Z,29.33
2018-12-16T19:46:08.153Z,29.73
2018-12-16T19:48:37.520Z,29.43
2018-12-16T19:51:05.881Z,28.97
2018-12-16T19:53:35.014Z,28.60
2018-12-16T19:56:03.233Z,27.00
2018-12-16T19:58:33.427Z,29.57
2018-12-16T20:01:02.656Z,43.13
2018-12-16T20:03:32.310Z,30.57
2018-12-16T20:06:38.853Z,29.80
2018-12-16T20:09:07.187Z,26.45
2018-12-16T20:11:44.388Z,29.30
2018-12-16T20:14:12.672Z,27.47
2018-12-16T20:16:41.941Z,27.37
2018-12-16T20:19:14.516Z,25.20
2018-12-16T20:21:49.570Z,25.82
2018-12-16T20:24:17.810Z,28.03
2018-12-16T20:26:48.035Z,26.50
2018-12-16T20:29:18.234Z,28.13
2018-12-16T20:31:46.409Z,26.13
2018-12-16T20:34:14.702Z,26.77
2018-12-16T20:36:45.936Z,26.47
2018-12-16T20:39:23.484Z,24.33
2018-12-16T20:41:51.853Z,27.43
2018-12-16T20:44:22.210Z,25.27
2018-12-16T20:46:51.497Z,23.73
2018-12-16T20:49:19.670Z,24.77
2018-12-16T20:51:47.862Z,25.03
2018-12-16T20:54:23.159Z,24.53
2018-12-16T20:56:51.453Z,26.07
2018-12-16T20:59:20.735Z,24.57
2018-12-16T21:01:50.434Z,26.17
2018-12-16T21:04:19.731Z,25.25
2018-12-16T21:06:51.453Z,24.00
2018-12-16T21:09:19.628Z,25.20
2018-12-16T21:12:02.082Z,23.83
2018-12-16T21:14:50.132Z,25.17
2018-12-16T21:17:36.225Z,24.43
2018-12-16T21:20:05.704Z,24.23
2018-12-16T21:22:37.133Z,25.97
2018-12-16T21:25:05.384Z,25.10
2018-12-16T21:27:38.726Z,25.77
2018-12-16T21:30:07.289Z,24.43
2018-12-16T21:32:35.806Z,24.03
2018-12-16T21:35:05.108Z,24.43
2018-12-16T21:37:33.827Z,30.68
2018-12-16T21:40:02.044Z,26.27
2018-12-16T21:42:30.312Z,24.83
2018-12-16T21:45:00.559Z,24.63
2018-12-16T21:47:28.796Z,24.83
2018-12-16T21:49:57.124Z,23.30
2018-12-16T21:52:25.315Z,23.70
2018-12-16T21:54:54.569Z,24.47
2018-12-16T21:57:23.892Z,25.10
2018-12-16T21:59:55.244Z,23.57
2018-12-16T22:02:23.542Z,23.67
2018-12-16T22:04:51.784Z,26.00
2018-12-16T22:07:19.944Z,23.37
2018-12-16T22:09:54.260Z,25.07
2018-12-16T22:12:22.485Z,25.87
2018-12-16T22:14:50.723Z,24.70
2018-12-16T22:17:18.986Z,23.77
2018-12-16T22:19:49.640Z,23.15
2018-12-16T22:22:19.966Z,24.03
2018-12-16T22:24:48.204Z,26.70
2018-12-16T22:27:16.718Z,27.37
2018-12-16T22:29:45.998Z,25.03
2018-12-16T22:32:20.058Z,25.30
2018-12-16T22:34:50.560Z,24.37
2018-12-16T22:37:23.232Z,24.77
2018-12-16T22:39:51.738Z,23.93
2018-12-16T22:42:21.410Z,24.73
2018-12-16T22:45:01.084Z,25.40
2018-12-16T22:47:42.991Z,36.53
2018-12-16T22:50:11.203Z,23.73
2018-12-16T22:52:39.531Z,25.23
2018-12-16T22:55:11.900Z,24.93
2018-12-16T22:57:47.050Z,23.87
2018-12-16T23:00:19.073Z,24.27
2018-12-16T23:02:47.291Z,24.77
2018-12-16T23:05:21.634Z,25.10
2018-12-16T23:07:50.855Z,25.27
2018-12-16T23:10:19.092Z,24.37
2018-12-16T23:12:47.267Z,24.30
2018-12-16T23:15:15.440Z,23.92
2018-12-16T23:17:43.570Z,23.10
2018-12-16T23:20:20.836Z,23.47
2018-12-16T23:22:49.113Z,24.15
2018-12-16T23:25:17.353Z,22.33
2018-12-16T23:27:45.523Z,25.77
2018-12-16T23:30:15.195Z,23.80
2018-12-16T23:32:44.417Z,23.57
2018-12-16T23:35:13.665Z,24.93
2018-12-16T23:37:43.861Z,23.90
2018-12-16T23:40:17.834Z,23.90
2018-12-16T23:42:46.275Z,24.50
2018-12-16T23:45:18.490Z,23.40
2018-12-16T23:47:48.754Z,23.43
2018-12-16T23:50:18.062Z,24.23
2018-12-16T23:52:48.898Z,24.93
2018-12-16T23:55:17.140Z,28.00
2018-12-16T23:57:46.333Z,23.50
